Time,TemperatureF,DewpointF,PressureIn,WindDirection,WindDirectionDegrees,WindSpeedMPH,WindSpeedGustMPH,Humidity,HourlyPrecipIn,Conditions,Clouds,dailyrainin,SoftwareType,DateUTC
2013-02-19 00:05:00,28.1,25.0,29.89,NW,308,0.0,1.0,87,0.00,,,0.00,weatherlink.com 1.10,2013-02-19 05:05:00,
2013-02-19 00:20:00,28.1,25.0,29.88,NW,308,0.0,0.0,87,0.00,,,0.00,weatherlink.com 1.10,2013-02-19 05:20:00,
2013-02-19 00:35:00,28.0,25.0,29.88,WNW,298,0.0,0.0,87,0.00,,,0.00,weatherlink.com 1.10,2013-02-19 05:35:00,
2013-02-19 00:50:00,28.0,25.0,29.88,WNW,298,0.0,0.0,87,0.00,,,0.00,weatherlink.com 1.10,2013-02-19 05:50:00,
2013-02-19 01:05:00,28.1,25.0,29.87,WNW,298,0.0,0.0,87,0.00,,,0.00,weatherlink.com 1.10,2013-02-19 06:05:00,
2013-02-19 01:20:00,28.1,25.0,29.87,WNW,298,0.0,0.0,87,0.00,,,0.00,weatherlink.com 1.10,2013-02-19 06:20:00,
2013-02-19 01:35:00,29.2,26.0,29.87,WNW,298,0.0,1.0,87,0.00,,,0.00,weatherlink.com 1.10,2013-02-19 06:35:00,
2013-02-19 01:50:00,31.2,26.0,29.86,SW,214,0.0,2.0,82,0.00,,,0.00,weatherlink.com 1.10,2013-02-19 06:50:00,
2013-02-19 02:05:00,32.8,26.0,29.85,SSE,155,0.0,1.0,77,0.00,,,0.00,weatherlink.com 1.10,2013-02-19 07:05:00,
2013-02-19 02:20:00,32.6,26.0,29.84,SSE,155,0.0,0.0,75,0.00,,,0.00,weatherlink.com 1.10,2013-02-19 07:20:00,
2013-02-19 02:35:00,31.7,25.0,29.84,SSE,155,0.0,1.0,77,0.00,,,0.00,weatherlink.com 1.10,2013-02-19 07:35:00,
2013-02-19 02:50:00,31.6,26.0,29.82,SSE,156,0.0,1.0,79,0.00,,,0.00,weatherlink.com 1.10,2013-02-19 07:50:00,
2013-02-19 03:05:00,32.2,26.0,29.81,North,1,0.0,1.0,79,0.00,,,0.00,weatherlink.com 1.10,2013-02-19 08:05:00,
2013-02-19 03:20:00,32.6,27.0,29.80,North,1,0.0,1.0,80,0.00,,,0.00,weatherlink.com 1.10,2013-02-19 08:20:00,
2013-02-19 03:35:00,33.1,28.0,29.80,North,358,0.0,1.0,80,0.00,,,0.00,weatherlink.com 1.10,2013-02-19 08:35:00,
2013-02-19 03:51:00,33.1,28.0,29.80,North,360,0.0,1.0,80,0.00,,,0.00,weatherlink.com 1.10,2013-02-19 08:51:00,
2013-02-19 04:06:00,33.6,28.0,29.80,SW,233,0.0,1.0,80,0.00,,,0.00,weatherlink.com 1.10,2013-02-19 09:06:00,
2013-02-19 04:20:00,34.3,29.0,29.80,NNE,12,0.0,1.0,82,0.00,,,0.00,weatherlink.com 1.10,2013-02-19 09:20:00,
2013-02-19 04:36:00,40.3,34.0,29.81,West,271,1.0,9.0,78,0.03,,,0.03,weatherlink.com 1.10,2013-02-19 09:36:00,
2013-02-19 04:50:00,39.7,36.0,29.81,SW,226,2.0,10.0,85,0.08,,,0.08,weatherlink.com 1.10,2013-02-19 09:50:00,
2013-02-19 05:05:00,39.0,36.0,29.81,SSW,211,0.0,2.0,87,0.10,,,0.10,weatherlink.com 1.10,2013-02-19 10:05:00,
2013-02-19 05:20:00,37.6,34.0,29.79,SSW,210,0.0,1.0,88,0.13,,,0.13,weatherlink.com 1.10,2013-02-19 10:20:00,
2013-02-19 05:36:00,37.3,35.0,29.78,SSW,210,0.0,1.0,90,0.11,,,0.14,weatherlink.com 1.10,2013-02-19 10:36:00,
2013-02-19 05:51:00,36.9,35.0,29.77,SSW,205,0.0,1.0,91,0.07,,,0.15,weatherlink.com 1.10,2013-02-19 10:51:00,
2013-02-19 06:06:00,37.4,35.0,29.76,West,267,0.0,1.0,92,0.06,,,0.16,weatherlink.com 1.10,2013-02-19 11:06:00,
2013-02-19 06:21:00,36.7,34.0,29.75,SSW,206,0.0,1.0,91,0.04,,,0.17,weatherlink.com 1.10,2013-02-19 11:21:00,
2013-02-19 06:36:00,36.6,35.0,29.75,SSW,205,0.0,0.0,92,0.03,,,0.17,weatherlink.com 1.10,2013-02-19 11:36:00,
2013-02-19 06:51:00,36.3,34.0,29.74,SSW,193,0.0,0.0,92,0.02,,,0.17,weatherlink.com 1.10,2013-02-19 11:51:00,
2013-02-19 07:06:00,36.2,34.0,29.74,East,93,1.0,2.0,92,0.02,,,0.18,weatherlink.com 1.10,2013-02-19 12:06:00,
2013-02-19 07:21:00,37.7,36.0,29.73,ENE,70,0.0,4.0,93,0.02,,,0.19,weatherlink.com 1.10,2013-02-19 12:21:00,
2013-02-19 07:36:00,37.9,36.0,29.72,ENE,75,0.0,3.0,92,0.02,,,0.19,weatherlink.com 1.10,2013-02-19 12:36:00,
2013-02-19 07:51:00,39.2,37.0,29.72,SSW,208,0.0,8.0,92,0.02,,,0.19,weatherlink.com 1.10,2013-02-19 12:51:00,
2013-02-19 08:06:00,40.0,37.0,29.72,West,274,1.0,6.0,90,0.01,,,0.19,weatherlink.com 1.10,2013-02-19 13:06:00,
2013-02-19 08:21:00,40.3,37.0,29.72,SW,218,0.0,4.0,88,0.00,,,0.19,weatherlink.com 1.10,2013-02-19 13:21:00,
2013-02-19 08:36:00,40.4,37.0,29.71,NNE,13,0.0,3.0,88,0.00,,,0.19,weatherlink.com 1.10,2013-02-19 13:36:00,
2013-02-19 08:51:00,40.4,37.0,29.70,WSW,244,0.0,5.0,88,0.00,,,0.19,weatherlink.com 1.10,2013-02-19 13:51:00,
2013-02-19 09:06:00,40.6,38.0,29.70,WSW,242,1.0,3.0,89,0.00,,,0.19,weatherlink.com 1.10,2013-02-19 14:06:00,
2013-02-19 09:21:00,40.9,38.0,29.69,NW,312,0.0,3.0,88,0.00,,,0.19,weatherlink.com 1.10,2013-02-19 14:21:00,
2013-02-19 09:36:00,41.2,37.0,29.69,West,273,2.0,6.0,86,0.00,,,0.19,weatherlink.com 1.10,2013-02-19 14:36:00,
2013-02-19 09:51:00,41.7,38.0,29.68,SW,228,20.0,20.0,85,0.00,,,0.19,weatherlink.com 1.10,2013-02-19 14:51:00,
2013-02-19 10:07:00,42.4,38.0,29.68,WSW,257,4.0,17.0,83,0.01,,,0.20,weatherlink.com 1.10,2013-02-19 15:07:00,
2013-02-19 10:21:00,42.6,38.0,29.67,WSW,238,4.0,12.0,82,0.01,,,0.20,weatherlink.com 1.10,2013-02-19 15:21:00,
2013-02-19 10:37:00,42.6,38.0,29.67,WNW,298,1.0,10.0,82,0.01,,,0.20,weatherlink.com 1.10,2013-02-19 15:37:00,
2013-02-19 10:52:00,42.6,38.0,29.67,WSW,256,6.0,12.0,83,0.00,,,0.20,weatherlink.com 1.10,2013-02-19 15:52:00,
2013-02-19 11:06:00,42.6,38.0,29.67,NNE,26,0.0,9.0,83,0.00,,,0.20,weatherlink.com 1.10,2013-02-19 16:06:00,
2013-02-19 11:21:00,42.7,38.0,29.66,West,281,1.0,11.0,84,0.00,,,0.20,weatherlink.com 1.10,2013-02-19 16:21:00,
2013-02-19 11:37:00,42.7,38.0,29.66,ESE,120,2.0,14.0,84,0.00,,,0.20,weatherlink.com 1.10,2013-02-19 16:37:00,
2013-02-19 11:51:00,42.8,38.0,29.65,South,174,1.0,8.0,83,0.00,,,0.20,weatherlink.com 1.10,2013-02-19 16:51:00,
2013-02-19 12:06:00,43.2,38.0,29.64,ESE,110,1.0,9.0,83,0.00,,,0.20,weatherlink.com 1.10,2013-02-19 17:06:00,
2013-02-19 12:22:00,43.8,38.0,29.62,WSW,242,4.0,11.0,81,0.00,,,0.20,weatherlink.com 1.10,2013-02-19 17:22:00,
2013-02-19 12:37:00,44.4,39.0,29.62,West,267,3.0,9.0,80,0.00,,,0.20,weatherlink.com 1.10,2013-02-19 17:37:00,
2013-02-19 12:52:00,43.9,39.0,29.62,South,188,9.0,14.0,82,0.00,,,0.20,weatherlink.com 1.10,2013-02-19 17:52:00,
2013-02-19 13:07:00,41.8,38.0,29.63,WNW,297,9.0,9.0,86,0.03,,,0.23,weatherlink.com 1.10,2013-02-19 18:07:00,
2013-02-19 13:22:00,40.3,37.0,29.63,WNW,291,1.0,10.0,87,0.03,,,0.23,weatherlink.com 1.10,2013-02-19 18:22:00,
2013-02-19 13:37:00,39.3,36.0,29.64,North,8,0.0,15.0,89,0.06,,,0.26,weatherlink.com 1.10,2013-02-19 18:37:00,
2013-02-19 13:52:00,38.9,36.0,29.63,WNW,300,2.0,9.0,90,0.07,,,0.27,weatherlink.com 1.10,2013-02-19 18:52:00,
2013-02-19 14:07:00,38.9,36.0,29.64,WSW,251,6.0,9.0,89,0.04,,,0.27,weatherlink.com 1.10,2013-02-19 19:07:00,
2013-02-19 14:22:00,38.9,35.0,29.65,NW,315,0.0,13.0,84,0.04,,,0.27,weatherlink.com 1.10,2013-02-19 19:22:00,
2013-02-19 14:37:00,38.3,33.0,29.67,WNW,293,7.0,11.0,81,0.00,,,0.27,weatherlink.com 1.10,2013-02-19 19:37:00,
2013-02-19 14:52:00,37.4,30.0,29.68,West,266,4.0,12.0,76,0.00,,,0.27,weatherlink.com 1.10,2013-02-19 19:52:00,
2013-02-19 15:07:00,37.1,29.0,29.69,SW,228,3.0,11.0,73,0.00,,,0.27,weatherlink.com 1.10,2013-02-19 20:07:00,
2013-02-19 15:22:00,36.5,29.0,29.70,NNE,20,6.0,15.0,73,0.00,,,0.27,weatherlink.com 1.10,2013-02-19 20:22:00,
2013-02-19 15:37:00,36.1,29.0,29.70,West,266,6.0,16.0,74,0.00,,,0.27,weatherlink.com 1.10,2013-02-19 20:37:00,
2013-02-19 15:52:00,35.6,29.0,29.71,West,264,1.0,9.0,77,0.00,,,0.27,weatherlink.com 1.10,2013-02-19 20:52:00,
2013-02-19 16:07:00,34.7,28.0,29.72,WNW,301,4.0,13.0,77,0.00,,,0.27,weatherlink.com 1.10,2013-02-19 21:07:00,
2013-02-19 16:22:00,34.4,28.0,29.73,West,274,4.0,10.0,76,0.00,,,0.27,weatherlink.com 1.10,2013-02-19 21:22:00,
2013-02-19 16:37:00,34.5,27.0,29.73,West,273,3.0,13.0,74,0.00,,,0.27,weatherlink.com 1.10,2013-02-19 21:37:00,
2013-02-19 16:52:00,33.8,28.0,29.75,NW,311,3.0,10.0,79,0.00,,,0.27,weatherlink.com 1.10,2013-02-19 21:52:00,
2013-02-19 17:07:00,32.7,27.0,29.76,NNE,25,2.0,13.0,79,0.00,,,0.27,weatherlink.com 1.10,2013-02-19 22:07:00,
2013-02-19 17:22:00,32.5,26.0,29.76,West,267,1.0,9.0,77,0.00,,,0.27,weatherlink.com 1.10,2013-02-19 22:22:00,
2013-02-19 17:37:00,32.4,26.0,29.77,WNW,295,1.0,13.0,76,0.00,,,0.27,weatherlink.com 1.10,2013-02-19 22:37:00,
2013-02-19 17:52:00,32.1,26.0,29.78,WNW,291,5.0,11.0,78,0.00,,,0.27,weatherlink.com 1.10,2013-02-19 22:52:00,
2013-02-19 18:07:00,30.2,26.0,29.79,WSW,256,3.0,14.0,84,0.00,,,0.27,weatherlink.com 1.10,2013-02-19 23:07:00,
2013-02-19 18:22:00,30.3,25.0,29.80,NW,316,0.0,6.0,82,0.00,,,0.27,weatherlink.com 1.10,2013-02-19 23:22:00,
2013-02-19 18:37:00,29.8,26.0,29.81,WNW,293,0.0,11.0,85,0.00,,,0.27,weatherlink.com 1.10,2013-02-19 23:37:00,
2013-02-19 18:52:00,29.6,26.0,29.82,West,270,1.0,6.0,85,0.00,,,0.27,weatherlink.com 1.10,2013-02-19 23:52:00,
2013-02-19 19:07:00,29.7,25.0,29.82,ENE,58,0.0,12.0,83,0.00,,,0.27,weatherlink.com 1.10,2013-02-20 00:07:00,
2013-02-19 19:24:00,28.6,24.0,29.83,NW,316,3.0,12.0,81,0.00,,,0.27,weatherlink.com 1.10,2013-02-20 00:24:00,
2013-02-19 19:37:00,28.7,21.0,29.84,NW,314,3.0,13.0,74,0.00,,,0.27,weatherlink.com 1.10,2013-02-20 00:37:00,
2013-02-19 19:52:00,28.5,21.0,29.84,West,270,7.0,15.0,72,0.00,,,0.27,weatherlink.com 1.10,2013-02-20 00:52:00,
2013-02-19 20:07:00,28.1,20.0,29.84,East,101,0.0,10.0,72,0.00,,,0.27,weatherlink.com 1.10,2013-02-20 01:07:00,
2013-02-19 20:22:00,27.8,21.0,29.84,SSW,205,5.0,8.0,74,0.00,,,0.27,weatherlink.com 1.10,2013-02-20 01:22:00,
2013-02-19 20:37:00,27.6,20.0,29.84,WSW,249,2.0,6.0,74,0.00,,,0.27,weatherlink.com 1.10,2013-02-20 01:37:00,
2013-02-19 20:52:00,27.4,20.0,29.84,West,267,0.0,7.0,75,0.00,,,0.27,weatherlink.com 1.10,2013-02-20 01:52:00,
2013-02-19 21:07:00,27.5,21.0,29.84,SE,127,0.0,10.0,75,0.00,,,0.27,weatherlink.com 1.10,2013-02-20 02:07:00,
2013-02-19 21:23:00,26.6,22.0,29.85,SW,229,5.0,10.0,81,0.00,,,0.27,weatherlink.com 1.10,2013-02-20 02:23:00,
2013-02-19 21:37:00,26.5,20.0,29.85,West,272,6.0,17.0,76,0.00,,,0.27,weatherlink.com 1.10,2013-02-20 02:37:00,
2013-02-19 21:53:00,26.5,19.0,29.86,WNW,294,1.0,12.0,72,0.00,,,0.27,weatherlink.com 1.10,2013-02-20 02:53:00,
2013-02-19 22:07:00,26.5,18.0,29.86,WSW,248,3.0,11.0,70,0.00,,,0.27,weatherlink.com 1.10,2013-02-20 03:07:00,
2013-02-19 22:22:00,26.1,18.0,29.87,West,278,7.0,17.0,70,0.00,,,0.27,weatherlink.com 1.10,2013-02-20 03:22:00,
2013-02-19 22:37:00,25.7,17.0,29.87,SW,225,0.0,11.0,70,0.00,,,0.27,weatherlink.com 1.10,2013-02-20 03:37:00,
2013-02-19 22:53:00,25.4,17.0,29.86,West,259,7.0,9.0,71,0.00,,,0.27,weatherlink.com 1.10,2013-02-20 03:53:00,
2013-02-19 23:23:00,25.3,17.0,29.86,WNW,299,2.0,10.0,70,0.00,,,0.27,weatherlink.com 1.10,2013-02-20 04:23:00,
2013-02-19 23:38:00,25.2,17.0,29.86,WNW,288,2.0,8.0,72,0.00,,,0.27,weatherlink.com 1.10,2013-02-20 04:38:00,
2013-02-19 23:53:00,25.0,17.0,29.86,NW,316,3.0,11.0,72,0.00,,,0.27,weatherlink.com 1.10,2013-02-20 04:53:00,